createdAt,value
2017-11-06T00:01:26.051Z,25.23
2017-11-06T00:03:53.497Z,21.17
2017-11-06T00:06:20.946Z,28.12
2017-11-06T00:08:48.394Z,23.98
2017-11-06T00:11:15.845Z,24.12
2017-11-06T00:13:43.301Z,23.90
2017-11-06T00:16:10.770Z,23.55
2017-11-06T00:18:38.208Z,25.33
2017-11-06T00:21:05.659Z,26.08
2017-11-06T00:23:33.869Z,26.80
2017-11-06T00:26:01.311Z,32.38
2017-11-06T00:28:28.765Z,29.87
2017-11-06T00:30:56.957Z,26.52
2017-11-06T00:33:24.400Z,22.90
2017-11-06T00:35:51.843Z,23.90
2017-11-06T00:38:20.063Z,10.50
2017-11-06T00:40:47.506Z,36.95
2017-11-06T00:43:14.944Z,33.40
2017-11-06T00:45:42.390Z,33.80
2017-11-06T00:48:10.652Z,27.55
2017-11-06T00:50:38.090Z,30.23
2017-11-06T00:53:05.525Z,29.48
2017-11-06T00:55:32.967Z,31.27
2017-11-06T00:58:00.407Z,33.10
2017-11-06T01:00:27.872Z,32.35
2017-11-06T01:02:55.329Z,32.17
2017-11-06T01:05:22.781Z,29.75
2017-11-06T01:07:50.220Z,26.52
2017-11-06T01:10:18.456Z,30.75
2017-11-06T01:12:45.906Z,31.90
2017-11-06T01:15:13.365Z,34.67
2017-11-06T01:17:40.805Z,34.53
2017-11-06T01:20:08.249Z,40.17
2017-11-06T01:22:35.702Z,33.17
2017-11-06T01:25:03.907Z,33.00
2017-11-06T01:27:31.355Z,33.28
2017-11-06T01:29:58.804Z,34.75
2017-11-06T01:32:26.240Z,35.33
2017-11-06T01:34:54.453Z,44.38
2017-11-06T01:37:21.905Z,36.13
2017-11-06T01:39:49.348Z,37.35
2017-11-06T01:42:16.844Z,31.60
2017-11-06T01:44:44.281Z,38.25
2017-11-06T01:47:11.721Z,32.50
2017-11-06T01:49:39.168Z,32.80
2017-11-06T01:52:07.380Z,35.15
2017-11-06T01:54:34.861Z,29.33
2017-11-06T01:57:02.312Z,34.90
2017-11-06T01:59:29.768Z,33.90
2017-11-06T02:01:57.215Z,25.33
2017-11-06T02:04:24.665Z,20.55
2017-11-06T02:06:52.100Z,24.60
2017-11-06T02:09:19.549Z,25.75
2017-11-06T02:11:47.764Z,22.02
2017-11-06T02:14:15.247Z,18.60
2017-11-06T02:16:42.689Z,21.60
2017-11-06T02:19:10.140Z,18.52
2017-11-06T02:21:37.588Z,18.48
2017-11-06T02:24:05.058Z,23.27
2017-11-06T02:26:32.497Z,14.90
2017-11-06T02:28:59.936Z,21.77
2017-11-06T02:31:27.385Z,18.12
2017-11-06T02:33:55.594Z,16.92
2017-11-06T02:36:23.042Z,20.55
2017-11-06T02:38:50.478Z,21.85
2017-11-06T02:41:18.722Z,26.85
2017-11-06T02:43:46.161Z,25.83
2017-11-06T02:46:13.607Z,24.15
2017-11-06T02:48:41.057Z,24.92
2017-11-06T02:51:08.496Z,22.15
2017-11-06T02:53:35.939Z,22.85
2017-11-06T02:56:04.149Z,22.62
2017-11-06T02:58:31.644Z,21.87
2017-11-06T03:00:59.053Z,14.80
2017-11-06T03:03:26.508Z,22.60
2017-11-06T03:05:53.964Z,26.65
2017-11-06T03:08:21.450Z,21.67
2017-11-06T03:10:48.880Z,21.35
2017-11-06T03:13:16.322Z,21.23
2017-11-06T03:15:44.546Z,23.12
2017-11-06T03:18:12.006Z,25.20
2017-11-06T03:20:39.446Z,21.67
2017-11-06T03:23:06.904Z,21.17
2017-11-06T03:25:34.351Z,22.02
2017-11-06T03:28:01.791Z,21.73
2017-11-06T03:30:30.281Z,23.10
2017-11-06T03:32:58.520Z,19.62
2017-11-06T03:35:26.065Z,25.12
2017-11-06T03:37:53.501Z,18.48
2017-11-06T03:40:20.945Z,19.37
2017-11-06T03:42:48.395Z,25.33
2017-11-06T03:45:15.833Z,25.67
2017-11-06T03:47:44.048Z,24.05
2017-11-06T03:50:11.484Z,29.05
2017-11-06T03:52:38.932Z,29.65
2017-11-06T03:55:07.139Z,25.23
2017-11-06T03:57:34.570Z,12.43
2017-11-06T04:00:02.029Z,30.10
2017-11-06T04:02:29.461Z,24.75
2017-11-06T04:04:56.900Z,31.30
2017-11-06T04:07:24.349Z,20.92
2017-11-06T04:09:51.796Z,22.65
2017-11-06T04:12:19.229Z,21.60
2017-11-06T04:14:46.686Z,19.92
2017-11-06T04:17:14.129Z,27.80
2017-11-06T04:19:42.324Z,24.83
2017-11-06T04:22:09.765Z,29.17
2017-11-06T04:24:37.976Z,30.75
2017-11-06T04:27:05.427Z,24.25
2017-11-06T04:29:32.898Z,26.05
2017-11-06T04:32:00.345Z,22.45
2017-11-06T04:34:27.781Z,22.08
2017-11-06T04:36:55.242Z,22.30
2017-11-06T04:39:23.433Z,20.42
2017-11-06T04:41:50.882Z,23.40
2017-11-06T04:44:18.315Z,25.08
2017-11-06T04:46:46.538Z,26.52
2017-11-06T04:49:13.988Z,19.98
2017-11-06T04:51:41.453Z,27.05
2017-11-06T04:54:08.935Z,27.08
2017-11-06T04:56:36.368Z,29.73
2017-11-06T04:59:03.816Z,30.80
2017-11-06T05:01:31.268Z,22.90
2017-11-06T05:03:58.713Z,21.37
2017-11-06T05:06:26.181Z,26.87
2017-11-06T05:08:53.644Z,26.10
2017-11-06T05:11:21.107Z,28.58
2017-11-06T05:13:48.597Z,23.90
2017-11-06T05:16:16.041Z,21.52
2017-11-06T05:18:43.485Z,23.27
2017-11-06T05:21:10.929Z,24.65
2017-11-06T05:23:38.373Z,21.42
2017-11-06T05:26:05.825Z,18.75
2017-11-06T05:28:34.029Z,21.05
2017-11-06T05:31:01.479Z,12.32
2017-11-06T05:33:28.916Z,18.48
2017-11-06T05:35:57.268Z,18.35
2017-11-06T05:38:24.703Z,17.27
2017-11-06T05:40:52.143Z,19.62
2017-11-06T05:43:19.610Z,15.63
2017-11-06T05:45:47.041Z,14.98
2017-11-06T05:48:14.497Z,18.33
2017-11-06T05:50:41.943Z,18.30
2017-11-06T05:53:10.153Z,24.75
2017-11-06T05:55:37.589Z,21.87
2017-11-06T05:58:05.056Z,23.40
2017-11-06T06:00:32.495Z,23.60
2017-11-06T06:02:59.931Z,27.62
2017-11-06T06:05:28.170Z,26.77
2017-11-06T06:07:55.604Z,24.98
2017-11-06T06:10:23.055Z,23.25
2017-11-06T06:12:50.491Z,24.90
2017-11-06T06:15:18.723Z,27.20
2017-11-06T06:17:46.160Z,28.15
2017-11-06T06:20:13.629Z,24.95
2017-11-06T06:22:41.956Z,30.67
2017-11-06T06:25:09.381Z,30.05
2017-11-06T06:27:36.831Z,31.10
2017-11-06T06:30:04.300Z,35.30
2017-11-06T06:32:31.759Z,37.33
2017-11-06T06:34:59.195Z,35.08
2017-11-06T06:37:26.653Z,38.58
2017-11-06T06:39:54.101Z,37.55
2017-11-06T06:42:21.584Z,35.78
2017-11-06T06:44:49.032Z,36.95
2017-11-06T06:47:16.475Z,41.37
2017-11-06T06:49:43.927Z,41.97
2017-11-06T06:52:11.355Z,36.30
2017-11-06T06:54:38.836Z,51.40
2017-11-06T06:57:06.276Z,44.35
2017-11-06T06:59:34.494Z,42.67
2017-11-06T07:02:01.932Z,46.33
2017-11-06T07:04:29.390Z,38.63
2017-11-06T07:06:56.818Z,48.80
2017-11-06T07:09:24.260Z,44.95
2017-11-06T07:11:51.737Z,38.55
2017-11-06T07:14:20.059Z,39.30
2017-11-06T07:16:47.511Z,39.40
2017-11-06T07:19:14.942Z,47.05
2017-11-06T07:21:43.157Z,42.65
2017-11-06T07:24:10.617Z,46.80
2017-11-06T07:26:38.080Z,46.08
2017-11-06T07:29:05.544Z,37.97
2017-11-06T07:31:32.997Z,46.72
2017-11-06T07:34:00.440Z,41.95
2017-11-06T07:36:27.890Z,48.83
2017-11-06T07:38:55.370Z,49.38
2017-11-06T07:41:22.813Z,51.53
2017-11-06T07:43:50.297Z,47.42
2017-11-06T07:46:17.882Z,57.65
2017-11-06T07:48:45.348Z,48.60
2017-11-06T07:51:12.786Z,47.00
2017-11-06T07:53:40.240Z,50.22
2017-11-06T07:56:07.677Z,50.85
2017-11-06T07:58:35.117Z,54.40
2017-11-06T08:01:02.562Z,46.67
2017-11-06T08:03:30.004Z,47.92
2017-11-06T08:05:58.228Z,46.45
2017-11-06T08:08:25.670Z,45.90
2017-11-06T08:10:53.133Z,49.70
2017-11-06T08:13:20.598Z,25.80
2017-11-06T08:15:48.052Z,38.20
2017-11-06T08:18:15.518Z,48.83
2017-11-06T08:20:43.021Z,53.30
2017-11-06T08:23:10.460Z,56.65
2017-11-06T08:25:37.965Z,53.72
2017-11-06T08:28:05.455Z,57.30
2017-11-06T08:30:32.902Z,54.63
2017-11-06T08:33:00.339Z,44.95
2017-11-06T08:35:27.780Z,55.67
2017-11-06T08:37:55.994Z,35.00
2017-11-06T08:40:23.428Z,18.62
2017-11-06T08:42:50.899Z,18.67
2017-11-06T08:45:18.363Z,14.63
2017-11-06T08:47:45.796Z,12.00
2017-11-06T08:50:13.238Z,14.90
2017-11-06T08:52:41.461Z,16.85
2017-11-06T08:55:08.898Z,21.23
2017-11-06T08:57:36.356Z,13.57
2017-11-06T09:00:03.794Z,13.50
2017-11-06T09:02:32.002Z,18.58
2017-11-06T09:04:59.436Z,14.80
2017-11-06T09:07:26.868Z,16.77
2017-11-06T09:09:54.315Z,16.00
2017-11-06T09:12:21.756Z,14.45
2017-11-06T09:14:49.216Z,15.02
2017-11-06T09:17:16.656Z,15.25
2017-11-06T09:19:44.096Z,13.73
2017-11-06T09:22:11.536Z,16.75
2017-11-06T09:24:39.770Z,13.35
2017-11-06T09:27:07.202Z,15.38
2017-11-06T09:29:34.642Z,13.52
2017-11-06T09:32:02.083Z,13.62
2017-11-06T09:34:30.298Z,15.50
2017-11-06T09:36:57.729Z,14.70
2017-11-06T09:39:25.204Z,13.75
2017-11-06T09:41:52.641Z,13.93
2017-11-06T09:44:20.835Z,16.00
2017-11-06T09:46:48.277Z,14.23
2017-11-06T09:49:15.707Z,11.63
2017-11-06T09:51:43.904Z,12.65
2017-11-06T09:54:11.350Z,15.60
2017-11-06T09:56:39.548Z,12.07
2017-11-06T09:59:06.996Z,11.75
2017-11-06T10:01:34.445Z,12.75
2017-11-06T10:04:02.657Z,11.10
2017-11-06T10:06:30.103Z,12.23
2017-11-06T10:08:57.547Z,11.12
2017-11-06T10:11:24.980Z,13.30
2017-11-06T10:13:52.415Z,11.63
2017-11-06T10:16:19.860Z,22.50
2017-11-06T10:18:47.311Z,13.98
2017-11-06T10:21:14.767Z,13.20
2017-11-06T10:23:42.204Z,9.35
2017-11-06T10:26:09.651Z,12.27
2017-11-06T10:28:37.093Z,14.07
2017-11-06T10:31:05.347Z,14.23
2017-11-06T10:33:32.788Z,13.32
2017-11-06T10:36:00.221Z,13.13
2017-11-06T10:38:27.677Z,11.73
2017-11-06T10:40:55.119Z,12.40
2017-11-06T10:43:22.562Z,14.20
2017-11-06T10:45:50.766Z,14.02
2017-11-06T10:48:18.226Z,17.27
2017-11-06T10:50:45.680Z,14.05
2017-11-06T10:53:13.111Z,14.23
2017-11-06T10:55:41.321Z,18.05
2017-11-06T10:58:08.773Z,16.85
2017-11-06T11:00:36.211Z,21.12
2017-11-06T11:03:04.421Z,29.20
2017-11-06T11:05:31.867Z,19.75
2017-11-06T11:07:59.338Z,21.25
2017-11-06T11:10:26.768Z,22.40
2017-11-06T11:12:54.221Z,21.30
2017-11-06T11:15:22.428Z,22.35
2017-11-06T11:17:49.879Z,25.37
2017-11-06T11:20:17.350Z,22.75
2017-11-06T11:22:44.792Z,27.33
2017-11-06T11:25:12.243Z,32.40
2017-11-06T11:27:39.685Z,30.75
2017-11-06T11:30:07.893Z,32.65
2017-11-06T11:32:35.339Z,32.58
2017-11-06T11:35:02.772Z,30.98
2017-11-06T11:37:31.008Z,33.10
2017-11-06T11:39:58.451Z,37.83
2017-11-06T11:42:25.915Z,32.05
2017-11-06T11:44:53.373Z,34.42
2017-11-06T11:47:20.839Z,29.33
2017-11-06T11:49:48.510Z,33.97
2017-11-06T11:52:15.979Z,36.97
2017-11-06T11:54:43.496Z,32.85
2017-11-06T11:57:10.941Z,30.20
2017-11-06T11:59:38.429Z,27.80
2017-11-06T12:02:05.878Z,27.00
2017-11-06T12:04:33.422Z,32.33
2017-11-06T12:07:00.867Z,33.08
2017-11-06T12:09:28.324Z,26.45
2017-11-06T12:11:55.792Z,29.12
2017-11-06T12:14:23.238Z,24.55
2017-11-06T12:16:50.687Z,28.65
2017-11-06T12:19:18.909Z,34.92
2017-11-06T12:21:46.384Z,32.15
2017-11-06T12:24:13.898Z,20.67
2017-11-06T12:26:41.423Z,31.70
2017-11-06T12:29:09.018Z,29.37
2017-11-06T12:31:36.452Z,31.42
2017-11-06T12:34:04.671Z,29.67
2017-11-06T12:36:32.220Z,32.75
2017-11-06T12:38:59.668Z,31.33
2017-11-06T12:41:27.118Z,20.42
2017-11-06T12:43:54.559Z,29.35
2017-11-06T12:46:22.765Z,31.12
2017-11-06T12:48:50.279Z,29.37
2017-11-06T12:51:17.767Z,29.77
2017-11-06T12:53:46.016Z,25.92
2017-11-06T12:56:13.451Z,29.45
2017-11-06T12:58:40.911Z,26.75
2017-11-06T13:01:08.427Z,23.58
2017-11-06T13:03:35.990Z,27.35
2017-11-06T13:06:03.436Z,24.80
2017-11-06T13:08:30.873Z,31.55
2017-11-06T13:10:59.122Z,25.17
2017-11-06T13:13:26.555Z,23.55
2017-11-06T13:15:53.995Z,24.67
2017-11-06T13:18:21.454Z,28.05
2017-11-06T13:20:48.887Z,22.13
2017-11-06T13:23:17.241Z,28.67
2017-11-06T13:25:44.748Z,31.05
2017-11-06T13:28:13.090Z,35.60
2017-11-06T13:30:40.613Z,33.50
2017-11-06T13:33:08.063Z,35.80
2017-11-06T13:35:35.509Z,19.12
2017-11-06T13:38:02.997Z,16.27
2017-11-06T13:40:31.421Z,28.02
2017-11-06T13:42:59.646Z,21.58
2017-11-06T13:45:27.085Z,20.08
2017-11-06T13:47:54.632Z,26.52
2017-11-06T13:50:22.870Z,23.60
2017-11-06T13:52:50.318Z,22.70
2017-11-06T13:55:17.762Z,25.23
2017-11-06T13:57:45.220Z,14.52
2017-11-06T14:00:12.681Z,25.02
2017-11-06T14:02:40.121Z,29.20
2017-11-06T14:05:07.624Z,23.98
2017-11-06T14:07:35.080Z,31.10
2017-11-06T14:10:02.540Z,19.23
2017-11-06T14:12:30.012Z,18.55
2017-11-06T14:14:58.256Z,20.62
2017-11-06T14:17:25.742Z,24.27
2017-11-06T14:19:53.949Z,19.40
2017-11-06T14:22:21.396Z,22.77
2017-11-06T14:24:49.620Z,20.58
2017-11-06T14:27:17.175Z,18.90
2017-11-06T14:29:44.601Z,19.55
2017-11-06T14:32:12.081Z,18.95
2017-11-06T14:34:39.572Z,30.52
2017-11-06T14:37:07.096Z,20.00
2017-11-06T14:39:34.608Z,23.10
2017-11-06T14:42:02.036Z,27.05
2017-11-06T14:44:29.485Z,25.17
2017-11-06T14:46:56.924Z,21.70
2017-11-06T14:49:24.371Z,28.02
2017-11-06T14:51:51.810Z,21.45
2017-11-06T14:54:20.066Z,22.23
2017-11-06T14:56:47.487Z,26.00
2017-11-06T14:59:15.077Z,24.02
2017-11-06T15:01:42.574Z,28.15
2017-11-06T15:04:10.812Z,22.92
2017-11-06T15:06:38.252Z,21.23
2017-11-06T15:09:05.842Z,25.40
2017-11-06T15:11:33.399Z,32.75
2017-11-06T15:14:02.194Z,28.67
2017-11-06T15:16:29.654Z,27.35
2017-11-06T15:18:57.089Z,34.60
2017-11-06T15:21:24.549Z,27.25
2017-11-06T15:23:52.032Z,33.13
2017-11-06T15:26:20.267Z,33.35
2017-11-06T15:28:47.720Z,37.17
2017-11-06T15:31:15.203Z,26.00
2017-11-06T15:33:42.653Z,32.35
2017-11-06T15:36:10.323Z,26.42
2017-11-06T15:38:37.760Z,27.55
2017-11-06T15:41:05.283Z,29.02
2017-11-06T15:43:33.516Z,32.63
2017-11-06T15:46:01.042Z,28.42
2017-11-06T15:48:28.548Z,27.65
2017-11-06T15:50:55.975Z,27.48
2017-11-06T15:53:23.446Z,32.78
2017-11-06T15:55:50.888Z,29.52
2017-11-06T15:58:18.344Z,25.12
2017-11-06T16:00:45.813Z,17.17
2017-11-06T16:03:13.263Z,39.42
2017-11-06T16:05:40.703Z,37.03
2017-11-06T16:08:08.139Z,33.22
2017-11-06T16:10:35.584Z,43.92
2017-11-06T16:13:03.817Z,39.65
2017-11-06T16:15:31.326Z,41.65
2017-11-06T16:17:59.552Z,34.63
2017-11-06T16:20:27.012Z,32.65
2017-11-06T16:22:54.448Z,38.20
2017-11-06T16:25:21.912Z,37.13
2017-11-06T16:27:49.354Z,34.35
2017-11-06T16:30:16.800Z,45.70
2017-11-06T16:32:44.249Z,48.10
2017-11-06T16:35:11.687Z,49.13
2017-11-06T16:37:39.904Z,44.55
2017-11-06T16:40:07.368Z,39.40
2017-11-06T16:42:34.821Z,39.38
2017-11-06T16:45:02.255Z,39.30
2017-11-06T16:47:29.726Z,55.95
2017-11-06T16:49:57.180Z,55.75
2017-11-06T16:52:24.618Z,50.70
2017-11-06T16:54:52.819Z,43.28
2017-11-06T16:57:20.321Z,48.85
2017-11-06T16:59:47.863Z,45.17
2017-11-06T17:02:15.304Z,45.70
2017-11-06T17:04:42.752Z,46.67
2017-11-06T17:07:10.184Z,41.78
2017-11-06T17:09:38.394Z,52.10
2017-11-06T17:12:05.828Z,55.45
2017-11-06T17:14:34.096Z,51.85
2017-11-06T17:17:02.309Z,49.28
2017-11-06T17:19:29.741Z,42.58
2017-11-06T17:21:57.188Z,44.22
2017-11-06T17:24:25.398Z,51.40
2017-11-06T17:26:52.836Z,66.22
2017-11-06T17:29:20.296Z,64.62
2017-11-06T17:31:47.741Z,69.45
2017-11-06T17:34:15.996Z,62.05
2017-11-06T17:36:43.427Z,49.28
2017-11-06T17:39:10.876Z,55.55
2017-11-06T17:41:38.342Z,53.33
2017-11-06T17:44:05.788Z,47.35
2017-11-06T17:46:33.225Z,44.13
2017-11-06T17:49:00.724Z,55.00
2017-11-06T17:51:28.178Z,50.35
2017-11-06T17:53:55.639Z,46.83
2017-11-06T17:56:23.069Z,40.25
2017-11-06T17:58:50.565Z,52.08
2017-11-06T18:01:17.997Z,46.45
2017-11-06T18:03:45.488Z,54.67
2017-11-06T18:06:12.939Z,43.45
2017-11-06T18:08:40.423Z,55.75
2017-11-06T18:11:08.631Z,69.90
2017-11-06T18:13:36.067Z,61.58
2017-11-06T18:16:04.275Z,58.25
2017-11-06T18:18:31.712Z,50.15
2017-11-06T18:20:59.161Z,58.58
2017-11-06T18:23:27.364Z,59.53
2017-11-06T18:25:54.810Z,51.42
2017-11-06T18:28:22.246Z,55.03
2017-11-06T18:30:50.455Z,61.75
2017-11-06T18:33:17.923Z,62.40
2017-11-06T18:35:45.388Z,49.45
2017-11-06T18:38:12.824Z,66.30
2017-11-06T18:40:40.268Z,51.22
2017-11-06T18:43:07.712Z,54.15
2017-11-06T18:45:35.937Z,53.30
2017-11-06T18:48:03.383Z,54.72
2017-11-06T18:50:30.831Z,44.40
2017-11-06T18:52:58.334Z,56.65
2017-11-06T18:55:25.782Z,61.45
2017-11-06T18:57:53.220Z,47.62
2017-11-06T19:00:20.657Z,70.85
2017-11-06T19:02:48.136Z,65.45
2017-11-06T19:05:15.584Z,53.75
2017-11-06T19:07:43.029Z,57.58
2017-11-06T19:10:10.477Z,53.97
2017-11-06T19:12:37.911Z,68.45
2017-11-06T19:15:05.376Z,55.95
2017-11-06T19:17:33.589Z,52.28
2017-11-06T19:20:01.040Z,56.58
2017-11-06T19:22:28.476Z,59.75
2017-11-06T19:24:56.771Z,81.17
2017-11-06T19:27:24.218Z,84.18
2017-11-06T19:29:52.456Z,71.57
2017-11-06T19:32:19.897Z,77.40
2017-11-06T19:34:47.500Z,69.10
2017-11-06T19:37:15.022Z,72.93
2017-11-06T19:39:42.755Z,75.85
2017-11-06T19:42:10.292Z,71.18
2017-11-06T19:44:38.497Z,73.43
2017-11-06T19:47:05.940Z,56.22
2017-11-06T19:49:33.376Z,48.33
2017-11-06T19:52:01.622Z,47.83
2017-11-06T19:54:29.064Z,39.45
2017-11-06T19:56:56.505Z,39.03
2017-11-06T19:59:23.948Z,42.10
2017-11-06T20:01:51.394Z,40.35
2017-11-06T20:04:19.613Z,37.58
2017-11-06T20:06:47.049Z,44.47
2017-11-06T20:09:14.501Z,36.38
2017-11-06T20:11:41.941Z,35.17
2017-11-06T20:14:10.149Z,36.00
2017-11-06T20:16:37.595Z,37.65
2017-11-06T20:19:05.056Z,38.30
2017-11-06T20:21:32.505Z,34.20
2017-11-06T20:23:59.952Z,33.25
2017-11-06T20:26:28.160Z,33.00
2017-11-06T20:28:55.611Z,29.27
2017-11-06T20:31:23.065Z,21.58
2017-11-06T20:33:50.489Z,22.92
2017-11-06T20:36:18.711Z,24.37
2017-11-06T20:38:46.157Z,22.30
2017-11-06T20:41:13.609Z,23.25
2017-11-06T20:43:41.071Z,20.75
2017-11-06T20:46:09.269Z,22.67
2017-11-06T20:48:36.745Z,20.67
2017-11-06T20:51:04.186Z,24.42
2017-11-06T20:53:31.632Z,20.00
2017-11-06T20:55:59.084Z,20.30
2017-11-06T20:58:26.516Z,23.40
2017-11-06T21:00:53.957Z,26.40
2017-11-06T21:03:22.195Z,25.70
2017-11-06T21:05:49.668Z,23.87
2017-11-06T21:08:17.126Z,26.65
2017-11-06T21:10:44.564Z,23.00
2017-11-06T21:13:11.999Z,25.88
2017-11-06T21:15:39.443Z,25.05
2017-11-06T21:18:06.885Z,22.08
2017-11-06T21:20:35.175Z,20.60
2017-11-06T21:23:03.376Z,30.62
2017-11-06T21:25:30.832Z,24.00
2017-11-06T21:27:58.268Z,28.05
2017-11-06T21:30:31.398Z,30.37
2017-11-06T21:32:58.840Z,27.58
2017-11-06T21:35:26.293Z,26.75
2017-11-06T21:37:53.730Z,27.95
2017-11-06T21:40:21.955Z,35.35
2017-11-06T21:42:49.397Z,33.50
2017-11-06T21:45:16.842Z,31.27
2017-11-06T21:47:44.297Z,34.58
2017-11-06T21:50:11.779Z,34.78
2017-11-06T21:52:39.215Z,35.88
2017-11-06T21:55:06.653Z,31.05
2017-11-06T21:57:34.860Z,31.70
2017-11-06T22:00:02.302Z,34.35
2017-11-06T22:02:29.771Z,38.05
2017-11-06T22:04:57.214Z,38.35
2017-11-06T22:07:24.652Z,35.63
2017-11-06T22:09:52.865Z,34.17
2017-11-06T22:12:20.312Z,27.50
2017-11-06T22:14:47.756Z,29.55
2017-11-06T22:17:15.190Z,28.60
2017-11-06T22:19:43.431Z,29.08
2017-11-06T22:22:10.876Z,30.17
2017-11-06T22:24:38.336Z,33.35
2017-11-06T22:27:05.782Z,32.75
2017-11-06T22:29:33.211Z,34.63
2017-11-06T22:32:01.428Z,35.83
2017-11-06T22:34:28.861Z,35.55
2017-11-06T22:36:56.337Z,30.92
2017-11-06T22:39:23.766Z,32.53
2017-11-06T22:41:51.204Z,30.25
2017-11-06T22:44:19.419Z,31.15
2017-11-06T22:46:46.866Z,33.38
2017-11-06T22:49:14.305Z,37.42
2017-11-06T22:51:42.510Z,36.35
2017-11-06T22:54:09.956Z,34.35
2017-11-06T22:56:37.396Z,29.45
2017-11-06T22:59:05.613Z,36.88
2017-11-06T23:01:33.054Z,38.47
2017-11-06T23:04:00.516Z,34.55
2017-11-06T23:06:27.977Z,37.80
2017-11-06T23:08:55.425Z,37.90
2017-11-06T23:11:22.872Z,44.08
2017-11-06T23:13:50.300Z,42.20
2017-11-06T23:16:17.747Z,34.05
2017-11-06T23:18:45.196Z,37.30
2017-11-06T23:21:12.643Z,39.53
2017-11-06T23:23:40.079Z,39.42
2017-11-06T23:26:07.640Z,49.00
2017-11-06T23:28:35.081Z,51.78
2017-11-06T23:31:02.524Z,47.05
2017-11-06T23:33:30.746Z,64.60
2017-11-06T23:35:58.179Z,53.40
2017-11-06T23:38:25.624Z,47.47
2017-11-06T23:40:53.064Z,54.47
2017-11-06T23:43:20.504Z,58.72
2017-11-06T23:45:47.979Z,62.00
2017-11-06T23:48:16.195Z,51.13
2017-11-06T23:50:43.624Z,55.12
2017-11-06T23:53:11.834Z,45.78
2017-11-06T23:55:39.306Z,58.47
2017-11-06T23:58:06.756Z,57.75
